Iron City, Tennessee
Current Conditions -  °F | °C
As of 9:53 AM on Saturday 20 Dec 2014 (Local Time) from KMSL Reporting Station
Clear Clear  
Wind Chill: 39°   Ceiling: Unl
Heat Index: 42°   Visibility: 8mi
Dew Point: 30°   Wind: 5mph
Humidity: 62%   Direction: 60°ENE
Pressure: 30.28"   Gusts: NA
Location:  35.02°N, 87.58°W
Report Text: KMSL 201553Z AUTO 06004KT 8SM CLR 06/M01 A3028 RMK AO2 SLP256 T00561011
Loading
Personal Weather Stations






























Interactive Weather Map New forecast layout! Learn more

10-Day Weather Forecast

Advertisements
Track Severe Weather on mobile